createdAt,value
2023-03-26T00:01:30.775Z,53.90
2023-03-26T00:03:12.107Z,54.47
2023-03-26T00:04:53.381Z,55.92
2023-03-26T00:06:34.726Z,54.59
2023-03-26T00:08:16.024Z,53.10
2023-03-26T00:09:57.305Z,54.77
2023-03-26T00:11:38.585Z,54.47
2023-03-26T00:13:19.883Z,53.88
2023-03-26T00:15:01.186Z,52.18
2023-03-26T00:16:42.651Z,51.66
2023-03-26T00:18:24.053Z,51.78
2023-03-26T00:20:05.318Z,53.84
2023-03-26T00:21:46.617Z,56.00
2023-03-26T00:23:27.998Z,58.37
2023-03-26T00:25:09.271Z,57.32
2023-03-26T00:26:50.631Z,56.15
2023-03-26T00:28:31.938Z,57.18
2023-03-26T00:30:13.243Z,56.40
2023-03-26T00:31:54.525Z,56.63
2023-03-26T00:33:35.793Z,56.86
2023-03-26T00:35:17.087Z,57.75
2023-03-26T00:36:58.346Z,56.97
2023-03-26T00:38:39.653Z,58.15
2023-03-26T00:40:20.945Z,58.72
2023-03-26T00:42:02.216Z,54.89
2023-03-26T00:43:43.495Z,55.97
2023-03-26T00:45:24.823Z,56.16
2023-03-26T00:47:06.128Z,54.89
2023-03-26T00:48:47.454Z,54.87
2023-03-26T00:50:28.740Z,59.20
2023-03-26T00:52:10.018Z,59.08
2023-03-26T00:53:51.322Z,56.72
2023-03-26T00:55:32.607Z,55.45
2023-03-26T00:57:20.207Z,56.62
2023-03-26T00:59:07.089Z,56.85
2023-03-26T01:00:48.405Z,55.46
2023-03-26T01:02:29.774Z,54.46
2023-03-26T01:04:11.274Z,52.54
2023-03-26T01:05:52.988Z,52.91
2023-03-26T01:07:34.635Z,54.34
2023-03-26T01:09:16.013Z,53.20
2023-03-26T01:10:57.405Z,52.35
2023-03-26T01:12:38.705Z,52.81
2023-03-26T01:14:19.967Z,52.93
2023-03-26T01:16:01.386Z,54.42
2023-03-26T01:17:42.757Z,52.76
2023-03-26T01:19:24.085Z,53.43
2023-03-26T01:21:05.424Z,54.54
2023-03-26T01:22:46.753Z,54.66
2023-03-26T01:24:28.322Z,53.97
2023-03-26T01:26:09.613Z,52.65
2023-03-26T01:27:50.905Z,57.28
2023-03-26T01:29:32.180Z,58.69
2023-03-26T01:31:13.454Z,58.59
2023-03-26T01:32:54.801Z,57.31
2023-03-26T01:34:36.145Z,51.95
2023-03-26T01:36:17.409Z,51.81
2023-03-26T01:37:58.869Z,52.36
2023-03-26T01:39:40.273Z,54.61
2023-03-26T01:41:21.565Z,54.24
2023-03-26T01:43:02.839Z,55.76
2023-03-26T01:44:44.167Z,55.37
2023-03-26T01:46:25.546Z,57.63
2023-03-26T01:48:06.958Z,59.02
2023-03-26T01:49:48.281Z,59.79
2023-03-26T01:51:29.645Z,57.95
2023-03-26T01:53:10.940Z,51.86
2023-03-26T01:54:52.258Z,51.02
2023-03-26T01:56:33.565Z,52.47
2023-03-26T01:58:14.846Z,55.67
2023-03-26T01:59:56.160Z,54.94
2023-03-26T02:01:37.624Z,52.55
2023-03-26T02:03:19.287Z,51.88
2023-03-26T02:05:00.669Z,51.78
2023-03-26T02:06:41.976Z,50.74
2023-03-26T02:08:23.494Z,50.73
2023-03-26T02:10:04.867Z,53.52
2023-03-26T02:11:46.157Z,55.31
2023-03-26T02:13:27.508Z,57.28
2023-03-26T02:15:08.806Z,56.89
2023-03-26T02:16:50.094Z,53.71
2023-03-26T02:18:31.392Z,58.25
2023-03-26T02:20:12.667Z,59.78
2023-03-26T02:21:53.936Z,58.01
2023-03-26T02:23:35.247Z,55.30
2023-03-26T02:25:16.548Z,54.78
2023-03-26T02:26:57.809Z,53.15
2023-03-26T02:28:39.109Z,55.88
2023-03-26T02:30:20.368Z,56.82
2023-03-26T02:32:01.686Z,55.54
2023-03-26T02:33:43.068Z,54.26
2023-03-26T02:35:24.397Z,53.25
2023-03-26T02:37:05.721Z,53.78
2023-03-26T02:38:47.042Z,52.35
2023-03-26T02:40:28.315Z,52.31
2023-03-26T02:42:09.594Z,51.48
2023-03-26T02:43:50.913Z,51.57
2023-03-26T02:45:32.249Z,52.14
2023-03-26T02:47:13.610Z,55.85
2023-03-26T02:48:54.917Z,53.59
2023-03-26T02:50:36.204Z,55.46
2023-03-26T02:52:17.494Z,57.09
2023-03-26T02:53:58.781Z,55.63
2023-03-26T02:55:40.089Z,52.95
2023-03-26T02:57:21.405Z,52.27
2023-03-26T02:59:02.683Z,52.69
2023-03-26T03:00:43.986Z,54.67
2023-03-26T03:02:25.403Z,54.33
2023-03-26T03:04:06.732Z,52.80
2023-03-26T03:05:48.033Z,51.29
2023-03-26T03:07:29.374Z,51.28
2023-03-26T03:09:10.675Z,57.21
2023-03-26T03:10:51.969Z,57.06
2023-03-26T03:12:33.273Z,56.11
2023-03-26T03:14:14.581Z,54.01
2023-03-26T03:15:56.090Z,54.24
2023-03-26T03:17:37.602Z,53.88
2023-03-26T03:19:18.983Z,55.13
2023-03-26T03:21:00.298Z,58.00
2023-03-26T03:22:41.588Z,57.86
2023-03-26T03:24:22.867Z,57.66
2023-03-26T03:26:04.168Z,56.91
2023-03-26T03:27:45.474Z,52.39
2023-03-26T03:29:26.751Z,52.80
2023-03-26T03:31:08.124Z,56.10
2023-03-26T03:32:49.471Z,58.81
2023-03-26T03:34:30.783Z,57.83
2023-03-26T03:36:20.560Z,56.54
2023-03-26T03:38:02.403Z,53.89
2023-03-26T03:39:43.697Z,56.46
2023-03-26T03:41:25.035Z,56.65
2023-03-26T03:43:06.338Z,54.39
2023-03-26T03:44:47.668Z,54.41
2023-03-26T03:46:29.015Z,56.88
2023-03-26T03:48:10.381Z,56.99
2023-03-26T03:49:51.696Z,57.12
2023-03-26T03:51:32.990Z,56.05
2023-03-26T03:53:14.284Z,54.56
2023-03-26T03:54:55.580Z,55.05
2023-03-26T03:56:36.919Z,53.56
2023-03-26T03:58:18.235Z,56.95
2023-03-26T03:59:59.509Z,57.94
2023-03-26T04:01:40.852Z,54.80
2023-03-26T04:03:33.176Z,57.78
2023-03-26T04:05:15.762Z,56.63
2023-03-26T04:06:57.085Z,56.89
2023-03-26T04:08:38.393Z,55.34
2023-03-26T04:10:19.725Z,54.85
2023-03-26T04:12:01.064Z,55.94
2023-03-26T04:13:42.380Z,53.56
2023-03-26T04:15:23.688Z,55.27
2023-03-26T04:17:05.005Z,59.29
2023-03-26T04:18:46.288Z,58.03
2023-03-26T04:20:27.574Z,56.32
2023-03-26T04:22:08.854Z,56.72
2023-03-26T04:23:50.143Z,60.31
2023-03-26T04:25:31.427Z,61.68
2023-03-26T04:27:12.721Z,60.61
2023-03-26T04:28:54.030Z,60.52
2023-03-26T04:30:35.285Z,61.91
2023-03-26T04:32:16.657Z,60.58
2023-03-26T04:33:57.966Z,59.76
2023-03-26T04:35:39.289Z,57.60
2023-03-26T04:37:20.631Z,55.22
2023-03-26T04:39:02.054Z,59.04
2023-03-26T04:40:43.336Z,60.88
2023-03-26T04:42:24.616Z,57.44
2023-03-26T04:44:05.925Z,58.01
2023-03-26T04:45:47.206Z,55.62
2023-03-26T04:47:28.475Z,54.45
2023-03-26T04:49:09.790Z,54.11
2023-03-26T04:50:51.046Z,52.97
2023-03-26T04:52:32.312Z,51.87
2023-03-26T04:54:13.687Z,50.77
2023-03-26T04:55:55.145Z,51.09
2023-03-26T04:57:36.585Z,50.34
2023-03-26T04:59:17.930Z,50.96
2023-03-26T05:00:59.228Z,57.64
2023-03-26T05:02:51.278Z,58.75
2023-03-26T05:04:32.643Z,59.88
2023-03-26T05:06:13.985Z,60.03
2023-03-26T05:07:55.248Z,57.16
2023-03-26T05:09:36.516Z,59.98
2023-03-26T05:11:17.814Z,59.93
2023-03-26T05:12:59.060Z,57.97
2023-03-26T05:14:40.334Z,55.22
2023-03-26T05:16:21.665Z,54.21
2023-03-26T05:18:03.043Z,55.11
2023-03-26T05:19:44.386Z,54.04
2023-03-26T05:21:25.670Z,53.36
2023-03-26T05:23:07.014Z,53.05
2023-03-26T05:24:48.303Z,52.26
2023-03-26T05:26:29.579Z,55.53
2023-03-26T05:28:10.929Z,55.07
2023-03-26T05:29:52.248Z,56.00
2023-03-26T05:31:33.535Z,57.45
2023-03-26T05:33:15.000Z,56.64
2023-03-26T05:34:56.398Z,57.10
2023-03-26T05:36:37.700Z,57.13
2023-03-26T05:38:19.000Z,57.58
2023-03-26T05:40:00.306Z,59.68
2023-03-26T05:41:41.596Z,57.50
2023-03-26T05:43:22.890Z,57.53
2023-03-26T05:45:04.218Z,58.38
2023-03-26T05:46:45.502Z,56.53
2023-03-26T05:48:26.781Z,56.24
2023-03-26T05:50:08.083Z,59.42
2023-03-26T05:51:49.633Z,57.89
2023-03-26T05:53:30.979Z,56.21
2023-03-26T05:55:12.302Z,55.92
2023-03-26T05:56:53.643Z,56.34
2023-03-26T05:58:34.933Z,58.30
2023-03-26T06:00:16.218Z,60.01
2023-03-26T06:01:57.532Z,60.16
2023-03-26T06:03:39.010Z,61.22
2023-03-26T06:05:20.473Z,62.05
2023-03-26T06:07:01.770Z,61.71
2023-03-26T06:08:43.036Z,61.74
2023-03-26T06:10:24.349Z,60.92
2023-03-26T06:12:05.657Z,60.02
2023-03-26T06:13:46.976Z,59.28
2023-03-26T06:15:28.313Z,59.04
2023-03-26T06:17:09.882Z,60.01
2023-03-26T06:18:51.251Z,60.13
2023-03-26T06:20:38.072Z,59.25
2023-03-26T06:22:19.393Z,58.03
2023-03-26T06:24:00.681Z,57.80
2023-03-26T06:25:43.161Z,58.34
2023-03-26T06:27:24.476Z,57.37
2023-03-26T06:29:05.845Z,56.78
2023-03-26T06:30:47.118Z,60.86
2023-03-26T06:32:28.434Z,62.37
2023-03-26T06:34:09.734Z,64.77
2023-03-26T06:35:51.113Z,63.06
2023-03-26T06:37:32.450Z,62.50
2023-03-26T06:39:13.795Z,64.05
2023-03-26T06:40:55.564Z,64.63
2023-03-26T06:43:09.090Z,64.86
2023-03-26T06:44:38.216Z,63.91
2023-03-26T06:46:19.546Z,61.64
2023-03-26T06:48:00.932Z,60.36
2023-03-26T06:49:44.231Z,60.69
2023-03-26T06:51:26.576Z,58.63
2023-03-26T06:53:07.876Z,58.76
2023-03-26T06:54:49.235Z,58.01
2023-03-26T06:56:30.592Z,57.12
2023-03-26T06:58:11.883Z,56.45
2023-03-26T06:59:53.190Z,56.55
2023-03-26T07:01:34.541Z,59.54
2023-03-26T07:03:15.876Z,61.47
2023-03-26T07:04:57.160Z,61.33
2023-03-26T07:06:38.464Z,62.35
2023-03-26T07:08:19.904Z,61.44
2023-03-26T07:10:01.235Z,61.73
2023-03-26T07:11:42.639Z,61.74
2023-03-26T07:13:23.943Z,58.67
2023-03-26T07:15:05.247Z,59.01
2023-03-26T07:16:46.608Z,59.58
2023-03-26T07:18:27.900Z,58.52
2023-03-26T07:20:09.232Z,57.87
2023-03-26T07:21:50.562Z,56.95
2023-03-26T07:23:31.857Z,56.63
2023-03-26T07:25:13.198Z,56.39
2023-03-26T07:26:54.513Z,59.22
2023-03-26T07:28:35.790Z,58.53
2023-03-26T07:30:17.153Z,57.50
2023-03-26T07:31:58.520Z,56.43
2023-03-26T07:33:39.832Z,56.97
2023-03-26T07:35:21.201Z,57.45
2023-03-26T07:37:02.698Z,55.92
2023-03-26T07:38:44.004Z,55.82
2023-03-26T07:40:25.322Z,56.16
2023-03-26T07:42:06.668Z,59.04
2023-03-26T07:43:47.965Z,59.88
2023-03-26T07:45:29.387Z,62.99
2023-03-26T07:47:10.779Z,64.38
2023-03-26T07:48:52.110Z,64.75
2023-03-26T07:50:33.548Z,65.87
2023-03-26T07:52:14.862Z,65.81
2023-03-26T07:53:56.262Z,65.20
2023-03-26T07:55:37.550Z,64.21
2023-03-26T07:57:18.884Z,63.12
2023-03-26T07:59:00.295Z,63.12
2023-03-26T08:00:41.597Z,63.56
2023-03-26T08:02:22.933Z,63.10
2023-03-26T08:04:26.346Z,63.45
2023-03-26T08:06:27.821Z,62.33
2023-03-26T08:08:29.140Z,63.04
2023-03-26T08:10:30.429Z,61.73
2023-03-26T08:12:31.688Z,60.99
2023-03-26T08:14:32.960Z,60.25
2023-03-26T08:16:34.216Z,59.28
2023-03-26T08:18:35.492Z,59.20
2023-03-26T08:20:16.895Z,58.53
2023-03-26T08:22:18.167Z,58.69
2023-03-26T08:24:19.441Z,58.56
2023-03-26T08:26:20.706Z,58.80
2023-03-26T08:28:02.347Z,57.23
2023-03-26T08:30:03.644Z,56.06
2023-03-26T08:32:04.887Z,57.25
2023-03-26T08:34:06.137Z,58.63
2023-03-26T08:36:07.433Z,57.72
2023-03-26T08:38:08.727Z,56.44
2023-03-26T08:40:09.960Z,55.03
2023-03-26T08:42:11.218Z,56.41
2023-03-26T08:44:12.501Z,56.42
2023-03-26T08:46:13.793Z,55.61
2023-03-26T08:48:15.094Z,54.73
2023-03-26T08:50:16.606Z,53.93
2023-03-26T08:51:57.938Z,53.23
2023-03-26T08:53:39.248Z,54.01
2023-03-26T08:55:20.550Z,54.74
2023-03-26T08:57:01.864Z,54.01
2023-03-26T08:58:43.205Z,54.56
2023-03-26T09:00:24.536Z,55.29
2023-03-26T09:02:05.891Z,55.35
2023-03-26T09:03:47.255Z,56.37
2023-03-26T09:05:29.442Z,56.52
2023-03-26T09:07:11.279Z,55.71
2023-03-26T09:08:54.152Z,54.93
2023-03-26T09:10:36.316Z,55.07
2023-03-26T09:12:18.427Z,55.81
2023-03-26T09:14:00.312Z,56.15
2023-03-26T09:15:42.583Z,55.52
2023-03-26T09:17:24.532Z,57.19
2023-03-26T09:19:06.501Z,59.94
2023-03-26T09:20:48.046Z,60.96
2023-03-26T09:22:29.778Z,63.17
2023-03-26T09:24:11.174Z,61.26
2023-03-26T09:25:52.876Z,59.94
2023-03-26T09:27:34.924Z,58.66
2023-03-26T09:29:17.000Z,57.63
2023-03-26T09:30:58.352Z,57.44
2023-03-26T09:32:39.912Z,56.97
2023-03-26T09:34:21.695Z,58.07
2023-03-26T09:36:03.463Z,57.67
2023-03-26T09:37:57.429Z,57.65
2023-03-26T09:39:40.132Z,58.41
2023-03-26T09:41:21.397Z,58.31
2023-03-26T09:43:02.719Z,57.27
2023-03-26T09:44:44.046Z,56.59
2023-03-26T09:46:25.327Z,55.76
2023-03-26T09:48:06.633Z,54.76
2023-03-26T09:49:47.959Z,55.56
2023-03-26T09:51:29.228Z,54.94
2023-03-26T09:53:10.500Z,54.05
2023-03-26T09:54:51.802Z,54.24
2023-03-26T09:56:33.155Z,53.44
2023-03-26T09:58:14.461Z,53.05
2023-03-26T09:59:55.848Z,52.19
2023-03-26T10:01:37.203Z,51.78
2023-03-26T10:03:18.623Z,52.57
2023-03-26T10:04:59.990Z,53.05
2023-03-26T10:06:42.036Z,52.65
2023-03-26T10:08:23.330Z,53.57
2023-03-26T10:10:04.633Z,52.86
2023-03-26T10:11:45.959Z,52.37
2023-03-26T10:13:27.253Z,53.55
2023-03-26T10:15:08.616Z,53.21
2023-03-26T10:16:50.005Z,53.35
2023-03-26T10:18:31.336Z,53.93
2023-03-26T10:20:12.602Z,54.76
2023-03-26T10:21:53.916Z,55.67
2023-03-26T10:23:35.233Z,55.26
2023-03-26T10:25:16.577Z,55.95
2023-03-26T10:27:09.979Z,56.81
2023-03-26T10:28:54.752Z,56.68
2023-03-26T10:30:36.096Z,57.54
2023-03-26T10:32:17.408Z,58.16
2023-03-26T10:33:58.748Z,58.34
2023-03-26T10:35:40.109Z,58.43
2023-03-26T10:37:21.495Z,59.60
2023-03-26T10:39:02.842Z,60.44
2023-03-26T10:40:44.157Z,58.70
2023-03-26T10:42:25.455Z,57.97
2023-03-26T10:44:08.735Z,57.71
2023-03-26T10:45:50.456Z,57.76
2023-03-26T10:47:31.785Z,58.17
2023-03-26T10:49:13.117Z,58.10
2023-03-26T10:50:54.797Z,58.45
2023-03-26T10:52:36.402Z,58.55
2023-03-26T10:54:17.676Z,58.33
2023-03-26T10:55:58.947Z,59.32
2023-03-26T10:57:40.236Z,58.53
2023-03-26T10:59:21.517Z,57.88
2023-03-26T11:01:05.534Z,57.40
2023-03-26T11:02:47.519Z,56.86
2023-03-26T11:04:28.830Z,54.59
2023-03-26T11:06:10.267Z,55.79
2023-03-26T11:07:51.658Z,55.08
2023-03-26T11:09:32.934Z,56.52
2023-03-26T11:11:14.245Z,58.18
2023-03-26T11:12:55.591Z,59.20
2023-03-26T11:14:36.884Z,63.07
2023-03-26T11:16:18.203Z,60.51
2023-03-26T11:17:59.546Z,64.47
2023-03-26T11:19:40.877Z,61.00
2023-03-26T11:21:22.197Z,60.27
2023-03-26T11:23:03.538Z,62.97
2023-03-26T11:24:44.832Z,62.77
2023-03-26T11:26:26.126Z,60.89
2023-03-26T11:28:07.436Z,61.52
2023-03-26T11:29:48.730Z,60.98
2023-03-26T11:31:30.054Z,62.01
2023-03-26T11:33:11.430Z,62.10
2023-03-26T11:34:52.694Z,61.55
2023-03-26T11:36:33.990Z,59.72
2023-03-26T11:38:15.278Z,59.70
2023-03-26T11:39:56.857Z,59.85
2023-03-26T11:41:38.164Z,60.05
2023-03-26T11:43:19.570Z,58.81
2023-03-26T11:45:00.844Z,57.62
2023-03-26T11:46:42.227Z,56.39
2023-03-26T11:48:23.636Z,56.06
2023-03-26T11:50:04.998Z,55.65
2023-03-26T11:51:46.302Z,56.48
2023-03-26T11:53:27.595Z,55.92
2023-03-26T11:55:08.878Z,56.03
2023-03-26T11:57:05.709Z,55.72
2023-03-26T11:58:47.945Z,53.23
2023-03-26T12:00:29.267Z,53.95
2023-03-26T12:02:10.556Z,52.20
2023-03-26T12:03:51.866Z,50.34
2023-03-26T12:05:33.161Z,50.19
2023-03-26T12:07:14.464Z,49.70
2023-03-26T12:08:55.788Z,49.61
2023-03-26T12:10:37.149Z,50.10
2023-03-26T12:12:18.557Z,50.04
2023-03-26T12:13:59.877Z,50.07
2023-03-26T12:15:41.152Z,49.89
2023-03-26T12:17:22.472Z,49.65
2023-03-26T12:19:12.804Z,48.68
2023-03-26T12:20:54.268Z,49.95
2023-03-26T12:22:35.632Z,50.21
2023-03-26T12:24:16.919Z,49.40
2023-03-26T12:25:58.174Z,48.04
2023-03-26T12:27:39.452Z,47.53
2023-03-26T12:29:20.867Z,46.99
2023-03-26T12:31:02.140Z,49.32
2023-03-26T12:32:46.742Z,49.45
2023-03-26T12:34:28.342Z,49.38
2023-03-26T12:36:09.665Z,48.23
2023-03-26T12:37:50.989Z,48.46
2023-03-26T12:40:07.726Z,47.55
2023-03-26T12:43:51.567Z,48.52
2023-03-26T12:44:51.580Z,47.42
2023-03-26T12:45:37.031Z,47.79
2023-03-26T12:48:01.144Z,47.72
2023-03-26T12:49:19.749Z,47.44
2023-03-26T12:51:01.096Z,47.37
2023-03-26T12:52:42.406Z,44.66
2023-03-26T12:54:23.776Z,45.50
2023-03-26T12:56:05.216Z,47.48
2023-03-26T12:57:46.501Z,38.65
2023-03-26T12:59:27.791Z,38.16
2023-03-26T13:01:09.177Z,45.56
2023-03-26T13:02:50.550Z,45.19
2023-03-26T13:04:31.934Z,41.18
2023-03-26T13:06:13.303Z,34.15
2023-03-26T13:07:54.629Z,34.91
2023-03-26T13:09:35.967Z,33.19
2023-03-26T13:11:17.346Z,33.68
2023-03-26T13:12:58.800Z,33.30
2023-03-26T13:14:40.096Z,32.26
2023-03-26T13:16:21.483Z,33.53
2023-03-26T13:18:02.847Z,33.02
2023-03-26T13:19:44.151Z,31.76
2023-03-26T13:21:25.552Z,34.59
2023-03-26T13:23:06.840Z,37.47
2023-03-26T13:24:48.101Z,37.11
2023-03-26T13:26:29.514Z,39.02
2023-03-26T13:28:10.808Z,40.15
2023-03-26T13:29:52.089Z,37.67
2023-03-26T13:31:33.413Z,39.26
2023-03-26T13:33:14.720Z,40.17
2023-03-26T13:34:56.077Z,40.56
2023-03-26T13:36:37.529Z,37.72
2023-03-26T13:38:18.856Z,36.60
2023-03-26T13:40:00.286Z,37.29
2023-03-26T13:41:41.680Z,37.03
2023-03-26T13:43:23.057Z,33.05
2023-03-26T13:45:04.817Z,31.96
2023-03-26T13:46:47.438Z,32.10
2023-03-26T13:48:28.730Z,33.82
2023-03-26T13:50:10.078Z,35.22
2023-03-26T13:51:51.408Z,34.69
2023-03-26T13:53:32.732Z,36.41
2023-03-26T13:55:13.993Z,41.24
2023-03-26T13:56:55.377Z,40.75
2023-03-26T13:58:36.757Z,40.45
2023-03-26T14:00:18.074Z,41.35
2023-03-26T14:01:59.393Z,41.46
2023-03-26T14:03:40.749Z,41.21
2023-03-26T14:05:22.066Z,41.12
2023-03-26T14:07:03.339Z,41.84
2023-03-26T14:08:44.648Z,40.83
2023-03-26T14:10:25.950Z,39.27
2023-03-26T14:12:07.252Z,38.25
2023-03-26T14:14:02.953Z,37.97
2023-03-26T14:15:44.248Z,38.38
2023-03-26T14:17:25.642Z,39.08
2023-03-26T14:19:06.956Z,38.41
2023-03-26T14:20:48.252Z,38.46
2023-03-26T14:22:29.553Z,38.14
2023-03-26T14:24:10.839Z,38.32
2023-03-26T14:25:52.086Z,38.94
2023-03-26T14:27:33.414Z,39.61
2023-03-26T14:29:14.729Z,44.94
2023-03-26T14:30:56.312Z,45.16
2023-03-26T14:32:38.054Z,44.74
2023-03-26T14:34:19.380Z,44.57
2023-03-26T14:36:00.729Z,45.56
2023-03-26T14:37:42.096Z,46.22
2023-03-26T14:39:23.462Z,47.25
2023-03-26T14:41:04.783Z,51.95
2023-03-26T14:42:46.078Z,55.11
2023-03-26T14:44:27.421Z,56.06
2023-03-26T14:46:08.723Z,57.31
2023-03-26T14:47:50.284Z,58.35
2023-03-26T14:49:31.704Z,60.70
2023-03-26T14:51:12.982Z,62.52
2023-03-26T14:53:00.834Z,64.57
2023-03-26T14:54:42.933Z,65.83
2023-03-26T14:56:24.266Z,63.82
2023-03-26T14:58:05.596Z,64.15
2023-03-26T14:59:46.894Z,66.29
2023-03-26T15:01:28.249Z,67.69
2023-03-26T15:03:09.709Z,67.64
2023-03-26T15:04:51.066Z,67.27
2023-03-26T15:06:32.418Z,64.48
2023-03-26T15:08:13.780Z,64.84
2023-03-26T15:09:55.163Z,62.87
2023-03-26T15:11:36.498Z,61.84
2023-03-26T15:13:17.800Z,61.94
2023-03-26T15:14:59.084Z,60.36
2023-03-26T15:16:40.432Z,61.79
2023-03-26T15:18:21.748Z,62.59
2023-03-26T15:20:03.017Z,54.04
2023-03-26T15:21:44.741Z,54.44
2023-03-26T15:23:26.045Z,52.88
2023-03-26T15:25:07.483Z,58.21
2023-03-26T15:26:49.128Z,60.94
2023-03-26T15:28:30.716Z,63.34
2023-03-26T15:30:12.038Z,62.99
2023-03-26T15:31:53.495Z,61.84
2023-03-26T15:33:34.799Z,62.87
2023-03-26T15:35:16.120Z,62.92
2023-03-26T15:36:57.433Z,62.25
2023-03-26T15:38:38.753Z,59.76
2023-03-26T15:40:20.165Z,61.74
2023-03-26T15:42:01.459Z,60.94
2023-03-26T15:43:42.835Z,61.68
2023-03-26T15:45:24.134Z,61.69
2023-03-26T15:47:05.434Z,61.60
2023-03-26T15:48:47.927Z,64.31
2023-03-26T15:50:29.242Z,61.20
2023-03-26T15:52:10.570Z,61.99
2023-03-26T15:53:51.927Z,61.59
2023-03-26T15:55:33.311Z,61.91
2023-03-26T15:57:14.623Z,59.83
2023-03-26T15:58:55.958Z,57.64
2023-03-26T16:00:37.283Z,56.87
2023-03-26T16:02:18.575Z,56.78
2023-03-26T16:03:59.871Z,56.31
2023-03-26T16:05:41.224Z,57.21
2023-03-26T16:07:22.549Z,53.01
2023-03-26T16:09:03.847Z,51.71
2023-03-26T16:10:45.117Z,49.78
2023-03-26T16:12:26.465Z,50.35
2023-03-26T16:14:07.741Z,51.95
2023-03-26T16:15:49.060Z,53.26
2023-03-26T16:17:30.439Z,53.59
2023-03-26T16:19:11.761Z,52.34
2023-03-26T16:20:56.061Z,40.46
2023-03-26T16:22:42.973Z,40.84
2023-03-26T16:24:25.186Z,40.21
2023-03-26T16:26:06.487Z,39.30
2023-03-26T16:27:47.773Z,41.24
2023-03-26T16:29:29.109Z,39.77
2023-03-26T16:31:35.022Z,44.43
2023-03-26T16:33:11.740Z,43.54
2023-03-26T16:34:53.048Z,44.93
2023-03-26T16:36:34.394Z,54.43
2023-03-26T16:38:15.873Z,52.29
2023-03-26T16:39:57.325Z,49.65
2023-03-26T16:41:38.630Z,48.27
2023-03-26T16:43:19.915Z,48.95
2023-03-26T16:45:01.171Z,47.46
2023-03-26T16:46:42.476Z,46.42
2023-03-26T16:48:24.349Z,46.77
2023-03-26T16:50:09.023Z,47.55
2023-03-26T16:51:50.688Z,48.80
2023-03-26T16:53:31.972Z,49.13
2023-03-26T16:55:13.270Z,51.26
2023-03-26T16:56:54.615Z,51.24
2023-03-26T16:58:36.015Z,51.87
2023-03-26T17:00:17.336Z,52.54
2023-03-26T17:01:58.727Z,55.41
2023-03-26T17:03:40.101Z,54.69
2023-03-26T17:05:21.418Z,54.68
2023-03-26T17:07:02.713Z,53.54
2023-03-26T17:08:44.006Z,53.40
2023-03-26T17:10:25.283Z,53.07
2023-03-26T17:12:06.588Z,53.65
2023-03-26T17:13:47.872Z,52.73
2023-03-26T17:15:29.153Z,52.54
2023-03-26T17:17:10.459Z,52.87
2023-03-26T17:18:51.753Z,53.81
2023-03-26T17:20:33.118Z,56.50
2023-03-26T17:22:14.524Z,57.13
2023-03-26T17:23:55.804Z,57.39
2023-03-26T17:25:37.138Z,57.62
2023-03-26T17:27:18.427Z,57.32
2023-03-26T17:28:59.851Z,55.96
2023-03-26T17:30:41.451Z,55.45
2023-03-26T17:32:22.860Z,56.32
2023-03-26T17:34:04.172Z,55.28
2023-03-26T17:35:45.513Z,53.94
2023-03-26T17:37:26.821Z,54.46
2023-03-26T17:39:08.094Z,55.56
2023-03-26T17:40:52.234Z,54.57
2023-03-26T17:42:33.552Z,54.34
2023-03-26T17:44:14.976Z,53.89
2023-03-26T17:46:03.220Z,53.36
2023-03-26T17:47:45.604Z,53.84
2023-03-26T17:49:26.915Z,53.49
2023-03-26T17:51:08.258Z,52.61
2023-03-26T17:52:49.612Z,51.68
2023-03-26T17:54:30.953Z,51.09
2023-03-26T17:56:12.238Z,51.57
2023-03-26T17:57:53.540Z,50.68
2023-03-26T17:59:35.303Z,50.30
2023-03-26T18:01:17.696Z,51.03
2023-03-26T18:02:59.090Z,50.30
2023-03-26T18:04:40.497Z,50.32
2023-03-26T18:06:21.852Z,49.96
2023-03-26T18:08:03.171Z,49.65
2023-03-26T18:09:44.692Z,49.99
2023-03-26T18:11:25.982Z,49.38
2023-03-26T18:13:07.299Z,49.62
2023-03-26T18:14:48.648Z,49.60
2023-03-26T18:16:29.971Z,48.53
2023-03-26T18:18:11.316Z,48.00
2023-03-26T18:19:52.648Z,48.72
2023-03-26T18:21:33.994Z,51.93
2023-03-26T18:23:15.311Z,54.41
2023-03-26T18:24:56.606Z,55.09
2023-03-26T18:26:38.211Z,55.51
2023-03-26T18:28:20.091Z,53.69
2023-03-26T18:30:03.155Z,53.50
2023-03-26T18:31:44.732Z,54.16
2023-03-26T18:33:26.022Z,55.06
2023-03-26T18:35:07.317Z,55.17
2023-03-26T18:36:48.577Z,56.52
2023-03-26T18:38:35.427Z,55.13
2023-03-26T18:40:19.749Z,54.42
2023-03-26T18:42:01.060Z,53.15
2023-03-26T18:43:44.299Z,52.89
2023-03-26T18:45:26.090Z,51.94
2023-03-26T18:47:07.404Z,51.64
2023-03-26T18:48:48.751Z,51.12
2023-03-26T18:50:30.158Z,50.34
2023-03-26T18:52:11.476Z,50.48
2023-03-26T18:53:52.872Z,50.35
2023-03-26T18:55:34.211Z,51.34
2023-03-26T18:57:15.688Z,50.81
2023-03-26T18:58:57.746Z,52.10
2023-03-26T19:00:39.076Z,53.02
2023-03-26T19:02:20.416Z,53.39
2023-03-26T19:04:01.742Z,54.93
2023-03-26T19:05:43.073Z,54.06
2023-03-26T19:07:24.364Z,53.23
2023-03-26T19:09:07.778Z,53.70
2023-03-26T19:10:55.223Z,54.90
2023-03-26T19:12:36.682Z,54.08
2023-03-26T19:14:17.928Z,53.08
2023-03-26T19:15:59.220Z,52.26
2023-03-26T19:17:40.620Z,50.80
2023-03-26T19:19:21.989Z,50.79
2023-03-26T19:21:03.348Z,49.70
2023-03-26T19:22:44.658Z,50.16
2023-03-26T19:24:25.964Z,50.87
2023-03-26T19:26:07.281Z,52.28
2023-03-26T19:27:48.611Z,52.44
2023-03-26T19:29:29.937Z,52.65
2023-03-26T19:31:11.445Z,52.72
2023-03-26T19:32:52.884Z,54.17
2023-03-26T19:34:34.314Z,54.47
2023-03-26T19:36:15.673Z,52.34
2023-03-26T19:37:56.959Z,52.86
2023-03-26T19:39:38.253Z,53.41
2023-03-26T19:41:19.600Z,53.76
2023-03-26T19:43:01.921Z,53.35
2023-03-26T19:44:43.954Z,55.17
2023-03-26T19:46:25.387Z,55.90
2023-03-26T19:48:14.214Z,57.23
2023-03-26T19:49:56.503Z,58.37
2023-03-26T19:51:37.797Z,57.39
2023-03-26T19:53:19.133Z,59.34
2023-03-26T19:55:00.561Z,56.70
2023-03-26T19:56:42.228Z,55.84
2023-03-26T19:58:23.623Z,56.22
2023-03-26T20:00:04.953Z,56.79
2023-03-26T20:01:46.298Z,55.76
2023-03-26T20:03:27.718Z,55.99
2023-03-26T20:05:09.093Z,54.29
2023-03-26T20:06:50.380Z,54.37
2023-03-26T20:08:31.707Z,57.19
2023-03-26T20:10:13.010Z,54.13
2023-03-26T20:11:54.304Z,52.57
2023-03-26T20:13:35.647Z,52.37
2023-03-26T20:15:19.445Z,52.21
2023-03-26T20:17:01.202Z,53.57
2023-03-26T20:18:42.697Z,54.37
2023-03-26T20:20:23.986Z,52.51
2023-03-26T20:22:06.278Z,50.64
2023-03-26T20:23:48.722Z,51.25
2023-03-26T20:25:31.214Z,52.03
2023-03-26T20:27:12.781Z,52.71
2023-03-26T20:28:54.060Z,52.00
2023-03-26T20:30:37.740Z,52.71
2023-03-26T20:32:19.263Z,52.67
2023-03-26T20:34:00.545Z,53.47
2023-03-26T20:35:41.895Z,52.99
2023-03-26T20:37:23.195Z,52.95
2023-03-26T20:39:04.476Z,52.18
2023-03-26T20:40:45.760Z,51.86
2023-03-26T20:42:27.081Z,52.39
2023-03-26T20:44:08.425Z,52.92
2023-03-26T20:45:49.738Z,51.70
2023-03-26T20:47:31.066Z,52.88
2023-03-26T20:49:12.403Z,53.67
2023-03-26T20:50:53.795Z,53.54
2023-03-26T20:52:35.104Z,53.17
2023-03-26T20:54:16.404Z,53.68
2023-03-26T20:55:57.710Z,55.17
2023-03-26T20:57:39.008Z,54.60
2023-03-26T20:59:20.299Z,55.87
2023-03-26T21:01:01.723Z,56.11
2023-03-26T21:02:43.384Z,55.11
2023-03-26T21:04:24.994Z,54.48
2023-03-26T21:06:06.327Z,54.17
2023-03-26T21:07:47.637Z,53.04
2023-03-26T21:09:29.681Z,52.85
2023-03-26T21:11:10.975Z,52.76
2023-03-26T21:12:52.256Z,52.74
2023-03-26T21:14:33.535Z,51.86
2023-03-26T21:16:14.863Z,51.59
2023-03-26T21:17:56.228Z,50.88
2023-03-26T21:19:37.541Z,50.67
2023-03-26T21:21:21.517Z,50.82
2023-03-26T21:23:03.036Z,51.05
2023-03-26T21:24:44.337Z,51.13
2023-03-26T21:26:25.619Z,51.06
2023-03-26T21:28:06.944Z,52.46
2023-03-26T21:29:48.245Z,52.42
2023-03-26T21:31:29.572Z,51.51
2023-03-26T21:33:10.882Z,52.10
2023-03-26T21:34:58.764Z,51.59
2023-03-26T21:36:40.869Z,50.90
2023-03-26T21:38:22.171Z,50.29
2023-03-26T21:40:03.480Z,50.54
2023-03-26T21:41:44.755Z,50.67
2023-03-26T21:43:26.101Z,51.28
2023-03-26T21:45:07.426Z,51.48
2023-03-26T21:46:48.771Z,51.47
2023-03-26T21:48:30.105Z,51.60
2023-03-26T21:50:11.416Z,51.52
2023-03-26T21:51:52.721Z,51.52
2023-03-26T21:53:34.004Z,52.40
2023-03-26T21:55:15.297Z,53.68
2023-03-26T21:56:56.617Z,52.68
2023-03-26T21:58:37.920Z,52.87